sensor_id;sensor_type;location;lat;lon;timestamp;P1;durP1;ratioP1;P2;durP2;ratioP2
79533;SDS011;68982;52.160;6.736;2024-01-10T00:02:24;5.13;;;3.25;;
79533;SDS011;68982;52.160;6.736;2024-01-10T00:04:50;4.63;;;3.08;;
79533;SDS011;68982;52.160;6.736;2024-01-10T00:07:15;4.43;;;2.80;;
79533;SDS011;68982;52.160;6.736;2024-01-10T00:09:40;6.50;;;2.92;;
79533;SDS011;68982;52.160;6.736;2024-01-10T00:12:06;4.35;;;2.67;;
79533;SDS011;68982;52.160;6.736;2024-01-10T00:14:31;6.97;;;3.15;;
79533;SDS011;68982;52.160;6.736;2024-01-10T00:16:57;5.37;;;2.57;;
79533;SDS011;68982;52.160;6.736;2024-01-10T00:19:22;5.45;;;2.92;;
79533;SDS011;68982;52.160;6.736;2024-01-10T00:21:47;4.60;;;2.93;;
79533;SDS011;68982;52.160;6.736;2024-01-10T00:24:13;5.00;;;3.08;;
79533;SDS011;68982;52.160;6.736;2024-01-10T00:26:38;6.47;;;3.00;;
79533;SDS011;68982;52.160;6.736;2024-01-10T00:29:04;7.53;;;3.07;;
79533;SDS011;68982;52.160;6.736;2024-01-10T00:31:29;6.67;;;3.20;;
79533;SDS011;68982;52.160;6.736;2024-01-10T00:33:54;5.07;;;2.60;;
79533;SDS011;68982;52.160;6.736;2024-01-10T00:36:20;4.53;;;2.50;;
79533;SDS011;68982;52.160;6.736;2024-01-10T00:38:45;4.55;;;3.25;;
79533;SDS011;68982;52.160;6.736;2024-01-10T00:41:11;5.87;;;3.30;;
79533;SDS011;68982;52.160;6.736;2024-01-10T00:43:37;5.55;;;3.00;;
79533;SDS011;68982;52.160;6.736;2024-01-10T00:46:02;5.47;;;3.22;;
79533;SDS011;68982;52.160;6.736;2024-01-10T00:48:28;6.90;;;2.65;;
79533;SDS011;68982;52.160;6.736;2024-01-10T00:50:53;5.77;;;3.20;;
79533;SDS011;68982;52.160;6.736;2024-01-10T00:53:18;5.70;;;3.27;;
79533;SDS011;68982;52.160;6.736;2024-01-10T00:55:44;5.27;;;2.90;;
79533;SDS011;68982;52.160;6.736;2024-01-10T00:58:09;5.80;;;2.60;;
79533;SDS011;68982;52.160;6.736;2024-01-10T01:00:35;5.00;;;2.67;;
79533;SDS011;68982;52.160;6.736;2024-01-10T01:03:00;7.65;;;3.10;;
79533;SDS011;68982;52.160;6.736;2024-01-10T01:05:25;5.87;;;2.70;;
79533;SDS011;68982;52.160;6.736;2024-01-10T01:07:51;7.20;;;3.27;;
79533;SDS011;68982;52.160;6.736;2024-01-10T01:10:16;6.60;;;3.53;;
79533;SDS011;68982;52.160;6.736;2024-01-10T01:12:41;6.93;;;3.33;;
79533;SDS011;68982;52.160;6.736;2024-01-10T01:15:07;5.07;;;3.17;;
79533;SDS011;68982;52.160;6.736;2024-01-10T01:17:32;7.53;;;2.92;;
79533;SDS011;68982;52.160;6.736;2024-01-10T01:19:59;5.10;;;2.97;;
79533;SDS011;68982;52.160;6.736;2024-01-10T01:22:24;5.15;;;2.63;;
79533;SDS011;68982;52.160;6.736;2024-01-10T01:24:50;4.40;;;2.80;;
79533;SDS011;68982;52.160;6.736;2024-01-10T01:27:15;4.03;;;2.57;;
79533;SDS011;68982;52.160;6.736;2024-01-10T01:29:40;6.50;;;3.47;;
79533;SDS011;68982;52.160;6.736;2024-01-10T01:32:06;6.10;;;2.63;;
79533;SDS011;68982;52.160;6.736;2024-01-10T01:34:31;5.40;;;2.72;;
79533;SDS011;68982;52.160;6.736;2024-01-10T01:36:56;6.50;;;3.53;;
79533;SDS011;68982;52.160;6.736;2024-01-10T01:39:22;5.17;;;2.97;;
79533;SDS011;68982;52.160;6.736;2024-01-10T01:41:47;5.07;;;2.73;;
79533;SDS011;68982;52.160;6.736;2024-01-10T01:44:12;6.00;;;2.47;;
79533;SDS011;68982;52.160;6.736;2024-01-10T01:46:38;5.18;;;2.63;;
79533;SDS011;68982;52.160;6.736;2024-01-10T01:49:05;6.28;;;3.00;;
79533;SDS011;68982;52.160;6.736;2024-01-10T01:51:32;5.28;;;3.22;;
79533;SDS011;68982;52.160;6.736;2024-01-10T01:53:59;6.80;;;3.13;;
79533;SDS011;68982;52.160;6.736;2024-01-10T01:56:25;4.72;;;2.85;;
79533;SDS011;68982;52.160;6.736;2024-01-10T01:58:51;5.20;;;2.80;;
79533;SDS011;68982;52.160;6.736;2024-01-10T02:01:17;5.60;;;2.65;;
79533;SDS011;68982;52.160;6.736;2024-01-10T02:03:46;5.30;;;3.30;;
79533;SDS011;68982;52.160;6.736;2024-01-10T02:06:12;5.65;;;2.80;;
79533;SDS011;68982;52.160;6.736;2024-01-10T02:08:37;5.22;;;2.90;;
79533;SDS011;68982;52.160;6.736;2024-01-10T02:11:03;4.70;;;3.00;;
79533;SDS011;68982;52.160;6.736;2024-01-10T02:13:30;5.90;;;3.35;;
79533;SDS011;68982;52.160;6.736;2024-01-10T02:15:57;6.68;;;2.78;;
79533;SDS011;68982;52.160;6.736;2024-01-10T02:18:23;5.30;;;2.88;;
79533;SDS011;68982;52.160;6.736;2024-01-10T02:20:49;5.40;;;3.20;;
79533;SDS011;68982;52.160;6.736;2024-01-10T02:23:15;6.10;;;3.10;;
79533;SDS011;68982;52.160;6.736;2024-01-10T02:25:40;5.80;;;3.03;;
79533;SDS011;68982;52.160;6.736;2024-01-10T02:28:06;6.10;;;2.78;;
79533;SDS011;68982;52.160;6.736;2024-01-10T02:30:32;4.13;;;2.70;;
79533;SDS011;68982;52.160;6.736;2024-01-10T02:32:57;6.93;;;2.97;;
79533;SDS011;68982;52.160;6.736;2024-01-10T02:35:23;6.30;;;2.80;;
79533;SDS011;68982;52.160;6.736;2024-01-10T02:37:48;5.75;;;3.10;;
79533;SDS011;68982;52.160;6.736;2024-01-10T02:40:17;6.78;;;3.22;;
79533;SDS011;68982;52.160;6.736;2024-01-10T02:42:43;6.95;;;3.05;;
79533;SDS011;68982;52.160;6.736;2024-01-10T02:45:08;6.03;;;2.70;;
79533;SDS011;68982;52.160;6.736;2024-01-10T02:47:34;6.35;;;3.28;;
79533;SDS011;68982;52.160;6.736;2024-01-10T02:49:59;5.63;;;2.85;;
79533;SDS011;68982;52.160;6.736;2024-01-10T02:52:25;5.50;;;3.20;;
79533;SDS011;68982;52.160;6.736;2024-01-10T02:54:50;5.90;;;2.77;;
79533;SDS011;68982;52.160;6.736;2024-01-10T02:57:15;6.43;;;2.92;;
79533;SDS011;68982;52.160;6.736;2024-01-10T02:59:41;4.50;;;3.17;;
79533;SDS011;68982;52.160;6.736;2024-01-10T03:02:06;8.43;;;3.72;;
79533;SDS011;68982;52.160;6.736;2024-01-10T03:04:31;5.83;;;3.40;;
79533;SDS011;68982;52.160;6.736;2024-01-10T03:06:57;6.23;;;3.10;;
79533;SDS011;68982;52.160;6.736;2024-01-10T03:09:22;6.27;;;3.03;;
79533;SDS011;68982;52.160;6.736;2024-01-10T03:11:48;6.70;;;3.47;;
79533;SDS011;68982;52.160;6.736;2024-01-10T03:14:14;6.43;;;3.22;;
79533;SDS011;68982;52.160;6.736;2024-01-10T03:16:39;5.60;;;2.92;;
79533;SDS011;68982;52.160;6.736;2024-01-10T03:19:05;7.15;;;3.15;;
79533;SDS011;68982;52.160;6.736;2024-01-10T03:21:30;5.83;;;3.10;;
79533;SDS011;68982;52.160;6.736;2024-01-10T03:23:56;4.77;;;2.87;;
79533;SDS011;68982;52.160;6.736;2024-01-10T03:26:22;6.35;;;3.30;;
79533;SDS011;68982;52.160;6.736;2024-01-10T03:28:48;8.95;;;4.47;;
79533;SDS011;68982;52.160;6.736;2024-01-10T03:31:13;4.53;;;2.97;;
79533;SDS011;68982;52.160;6.736;2024-01-10T03:33:39;6.88;;;3.63;;
79533;SDS011;68982;52.160;6.736;2024-01-10T03:36:05;7.88;;;3.30;;
79533;SDS011;68982;52.160;6.736;2024-01-10T03:38:31;5.45;;;3.08;;
79533;SDS011;68982;52.160;6.736;2024-01-10T03:40:56;8.30;;;3.17;;
79533;SDS011;68982;52.160;6.736;2024-01-10T03:43:22;6.53;;;2.97;;
79533;SDS011;68982;52.160;6.736;2024-01-10T03:45:47;9.70;;;3.53;;
79533;SDS011;68982;52.160;6.736;2024-01-10T03:48:12;6.43;;;3.33;;
79533;SDS011;68982;52.160;6.736;2024-01-10T03:50:38;5.78;;;3.20;;
79533;SDS011;68982;52.160;6.736;2024-01-10T03:53:03;5.80;;;2.80;;
79533;SDS011;68982;52.160;6.736;2024-01-10T03:55:28;7.20;;;3.25;;
79533;SDS011;68982;52.160;6.736;2024-01-10T03:57:54;5.95;;;3.13;;
79533;SDS011;68982;52.160;6.736;2024-01-10T04:00:21;5.20;;;2.97;;
79533;SDS011;68982;52.160;6.736;2024-01-10T04:02:46;7.30;;;3.20;;
79533;SDS011;68982;52.160;6.736;2024-01-10T04:05:12;5.78;;;3.00;;
79533;SDS011;68982;52.160;6.736;2024-01-10T04:07:41;7.63;;;3.28;;
79533;SDS011;68982;52.160;6.736;2024-01-10T04:10:10;8.60;;;3.30;;
79533;SDS011;68982;52.160;6.736;2024-01-10T04:12:36;6.47;;;3.20;;
79533;SDS011;68982;52.160;6.736;2024-01-10T04:15:02;5.88;;;3.00;;
79533;SDS011;68982;52.160;6.736;2024-01-10T04:17:29;6.93;;;3.33;;
79533;SDS011;68982;52.160;6.736;2024-01-10T04:19:54;6.50;;;3.45;;
79533;SDS011;68982;52.160;6.736;2024-01-10T04:22:19;5.73;;;3.30;;
79533;SDS011;68982;52.160;6.736;2024-01-10T04:24:45;7.07;;;3.30;;
79533;SDS011;68982;52.160;6.736;2024-01-10T04:27:10;7.93;;;3.50;;
79533;SDS011;68982;52.160;6.736;2024-01-10T04:29:35;6.13;;;3.72;;
79533;SDS011;68982;52.160;6.736;2024-01-10T04:32:01;6.03;;;3.28;;
79533;SDS011;68982;52.160;6.736;2024-01-10T04:34:26;6.13;;;3.50;;
79533;SDS011;68982;52.160;6.736;2024-01-10T04:36:51;8.10;;;3.70;;
79533;SDS011;68982;52.160;6.736;2024-01-10T04:39:17;6.85;;;3.53;;
79533;SDS011;68982;52.160;6.736;2024-01-10T04:41:42;4.83;;;2.93;;
79533;SDS011;68982;52.160;6.736;2024-01-10T04:44:07;8.50;;;3.95;;
79533;SDS011;68982;52.160;6.736;2024-01-10T04:46:33;7.35;;;3.90;;
79533;SDS011;68982;52.160;6.736;2024-01-10T04:48:58;6.57;;;3.53;;
79533;SDS011;68982;52.160;6.736;2024-01-10T04:51:24;6.57;;;3.47;;
79533;SDS011;68982;52.160;6.736;2024-01-10T04:53:49;8.97;;;4.60;;
79533;SDS011;68982;52.160;6.736;2024-01-10T04:56:14;8.03;;;3.87;;
79533;SDS011;68982;52.160;6.736;2024-01-10T04:58:40;7.60;;;4.17;;
79533;SDS011;68982;52.160;6.736;2024-01-10T05:01:05;9.68;;;4.28;;
79533;SDS011;68982;52.160;6.736;2024-01-10T05:03:31;11.15;;;4.43;;
79533;SDS011;68982;52.160;6.736;2024-01-10T05:05:56;7.53;;;4.15;;
79533;SDS011;68982;52.160;6.736;2024-01-10T05:08:21;7.50;;;4.35;;
79533;SDS011;68982;52.160;6.736;2024-01-10T05:10:47;6.72;;;3.65;;
79533;SDS011;68982;52.160;6.736;2024-01-10T05:13:12;7.88;;;3.92;;
79533;SDS011;68982;52.160;6.736;2024-01-10T05:15:38;9.55;;;4.47;;
79533;SDS011;68982;52.160;6.736;2024-01-10T05:18:03;9.40;;;4.18;;
79533;SDS011;68982;52.160;6.736;2024-01-10T05:20:29;8.48;;;4.25;;
79533;SDS011;68982;52.160;6.736;2024-01-10T05:22:54;5.93;;;3.25;;
79533;SDS011;68982;52.160;6.736;2024-01-10T05:25:23;7.07;;;3.60;;
79533;SDS011;68982;52.160;6.736;2024-01-10T05:27:49;8.07;;;4.40;;
79533;SDS011;68982;52.160;6.736;2024-01-10T05:30:14;10.53;;;5.20;;
79533;SDS011;68982;52.160;6.736;2024-01-10T05:32:39;8.05;;;4.78;;
79533;SDS011;68982;52.160;6.736;2024-01-10T05:35:05;9.90;;;4.80;;
79533;SDS011;68982;52.160;6.736;2024-01-10T05:37:31;9.88;;;4.97;;
79533;SDS011;68982;52.160;6.736;2024-01-10T05:39:56;8.07;;;3.80;;
79533;SDS011;68982;52.160;6.736;2024-01-10T05:42:21;12.23;;;5.43;;
79533;SDS011;68982;52.160;6.736;2024-01-10T05:44:47;11.85;;;5.15;;
79533;SDS011;68982;52.160;6.736;2024-01-10T05:47:12;8.52;;;4.40;;
79533;SDS011;68982;52.160;6.736;2024-01-10T05:49:38;11.82;;;5.80;;
79533;SDS011;68982;52.160;6.736;2024-01-10T05:52:03;9.93;;;4.30;;
79533;SDS011;68982;52.160;6.736;2024-01-10T05:54:29;10.93;;;4.65;;
79533;SDS011;68982;52.160;6.736;2024-01-10T05:56:54;9.03;;;5.03;;
79533;SDS011;68982;52.160;6.736;2024-01-10T05:59:19;8.43;;;4.97;;
79533;SDS011;68982;52.160;6.736;2024-01-10T06:01:45;9.77;;;5.20;;
79533;SDS011;68982;52.160;6.736;2024-01-10T06:04:10;10.10;;;4.93;;
79533;SDS011;68982;52.160;6.736;2024-01-10T06:06:35;9.55;;;5.50;;
79533;SDS011;68982;52.160;6.736;2024-01-10T06:09:01;13.67;;;6.03;;
79533;SDS011;68982;52.160;6.736;2024-01-10T06:11:27;11.73;;;5.65;;
79533;SDS011;68982;52.160;6.736;2024-01-10T06:13:54;12.13;;;5.47;;
79533;SDS011;68982;52.160;6.736;2024-01-10T06:16:19;9.63;;;4.85;;
79533;SDS011;68982;52.160;6.736;2024-01-10T06:18:45;14.17;;;4.73;;
79533;SDS011;68982;52.160;6.736;2024-01-10T06:21:10;11.17;;;5.03;;
79533;SDS011;68982;52.160;6.736;2024-01-10T06:23:35;11.75;;;6.15;;
79533;SDS011;68982;52.160;6.736;2024-01-10T06:26:01;10.47;;;5.13;;
79533;SDS011;68982;52.160;6.736;2024-01-10T06:28:26;9.52;;;4.80;;
79533;SDS011;68982;52.160;6.736;2024-01-10T06:30:52;10.10;;;4.80;;
79533;SDS011;68982;52.160;6.736;2024-01-10T06:33:17;11.20;;;5.13;;
79533;SDS011;68982;52.160;6.736;2024-01-10T06:35:44;11.25;;;5.93;;
79533;SDS011;68982;52.160;6.736;2024-01-10T06:38:10;11.77;;;5.78;;
79533;SDS011;68982;52.160;6.736;2024-01-10T06:40:36;13.77;;;6.13;;
79533;SDS011;68982;52.160;6.736;2024-01-10T06:43:02;10.73;;;5.68;;
79533;SDS011;68982;52.160;6.736;2024-01-10T06:45:27;12.23;;;5.63;;
79533;SDS011;68982;52.160;6.736;2024-01-10T06:47:53;15.17;;;5.63;;
79533;SDS011;68982;52.160;6.736;2024-01-10T06:50:18;9.53;;;5.07;;
79533;SDS011;68982;52.160;6.736;2024-01-10T06:52:45;13.70;;;5.88;;
79533;SDS011;68982;52.160;6.736;2024-01-10T06:55:10;11.70;;;6.17;;
79533;SDS011;68982;52.160;6.736;2024-01-10T06:57:36;10.00;;;5.88;;
79533;SDS011;68982;52.160;6.736;2024-01-10T07:00:01;13.45;;;6.18;;
79533;SDS011;68982;52.160;6.736;2024-01-10T07:02:31;14.90;;;6.95;;
79533;SDS011;68982;52.160;6.736;2024-01-10T07:04:57;12.50;;;5.78;;
79533;SDS011;68982;52.160;6.736;2024-01-10T07:07:22;14.98;;;7.45;;
79533;SDS011;68982;52.160;6.736;2024-01-10T07:09:48;12.90;;;6.83;;
79533;SDS011;68982;52.160;6.736;2024-01-10T07:12:13;13.60;;;6.30;;
79533;SDS011;68982;52.160;6.736;2024-01-10T07:14:39;14.13;;;6.43;;
79533;SDS011;68982;52.160;6.736;2024-01-10T07:17:04;10.35;;;5.50;;
79533;SDS011;68982;52.160;6.736;2024-01-10T07:19:29;14.05;;;7.20;;
79533;SDS011;68982;52.160;6.736;2024-01-10T07:21:56;10.90;;;5.82;;
79533;SDS011;68982;52.160;6.736;2024-01-10T07:24:21;12.65;;;6.18;;
79533;SDS011;68982;52.160;6.736;2024-01-10T07:26:47;16.50;;;7.60;;
79533;SDS011;68982;52.160;6.736;2024-01-10T07:29:12;13.88;;;6.32;;
79533;SDS011;68982;52.160;6.736;2024-01-10T07:31:38;10.63;;;5.87;;
79533;SDS011;68982;52.160;6.736;2024-01-10T07:34:04;12.85;;;6.03;;
79533;SDS011;68982;52.160;6.736;2024-01-10T07:36:32;11.52;;;5.93;;
79533;SDS011;68982;52.160;6.736;2024-01-10T07:39:01;11.40;;;6.30;;
79533;SDS011;68982;52.160;6.736;2024-01-10T07:41:26;14.85;;;7.38;;
79533;SDS011;68982;52.160;6.736;2024-01-10T07:43:52;15.07;;;7.90;;
79533;SDS011;68982;52.160;6.736;2024-01-10T07:46:17;11.97;;;6.17;;
79533;SDS011;68982;52.160;6.736;2024-01-10T07:48:42;12.85;;;6.68;;
79533;SDS011;68982;52.160;6.736;2024-01-10T07:51:08;12.57;;;6.25;;
79533;SDS011;68982;52.160;6.736;2024-01-10T07:53:33;13.18;;;5.72;;
79533;SDS011;68982;52.160;6.736;2024-01-10T07:55:58;12.63;;;5.75;;
79533;SDS011;68982;52.160;6.736;2024-01-10T07:58:24;13.02;;;6.38;;
79533;SDS011;68982;52.160;6.736;2024-01-10T08:00:49;13.40;;;6.43;;
79533;SDS011;68982;52.160;6.736;2024-01-10T08:03:16;12.55;;;5.85;;
79533;SDS011;68982;52.160;6.736;2024-01-10T08:05:41;14.50;;;6.72;;
79533;SDS011;68982;52.160;6.736;2024-01-10T08:08:07;17.97;;;6.77;;
79533;SDS011;68982;52.160;6.736;2024-01-10T08:10:32;16.42;;;7.35;;
79533;SDS011;68982;52.160;6.736;2024-01-10T08:12:57;9.07;;;5.20;;
79533;SDS011;68982;52.160;6.736;2024-01-10T08:15:23;14.45;;;7.22;;
79533;SDS011;68982;52.160;6.736;2024-01-10T08:17:48;11.88;;;6.63;;
79533;SDS011;68982;52.160;6.736;2024-01-10T08:20:14;12.02;;;6.07;;
79533;SDS011;68982;52.160;6.736;2024-01-10T08:22:44;12.95;;;6.72;;
79533;SDS011;68982;52.160;6.736;2024-01-10T08:25:09;10.88;;;5.70;;
79533;SDS011;68982;52.160;6.736;2024-01-10T08:27:35;13.75;;;6.40;;
79533;SDS011;68982;52.160;6.736;2024-01-10T08:30:00;14.47;;;6.27;;
79533;SDS011;68982;52.160;6.736;2024-01-10T08:32:25;13.15;;;6.72;;
79533;SDS011;68982;52.160;6.736;2024-01-10T08:34:51;11.82;;;6.00;;
79533;SDS011;68982;52.160;6.736;2024-01-10T08:37:17;13.98;;;6.60;;
79533;SDS011;68982;52.160;6.736;2024-01-10T08:39:42;11.15;;;6.10;;
79533;SDS011;68982;52.160;6.736;2024-01-10T08:42:09;13.68;;;6.00;;
79533;SDS011;68982;52.160;6.736;2024-01-10T08:44:35;11.90;;;5.85;;
79533;SDS011;68982;52.160;6.736;2024-01-10T08:47:00;14.75;;;6.72;;
79533;SDS011;68982;52.160;6.736;2024-01-10T08:49:26;12.35;;;6.55;;
79533;SDS011;68982;52.160;6.736;2024-01-10T08:51:51;11.30;;;5.97;;
79533;SDS011;68982;52.160;6.736;2024-01-10T08:54:18;10.23;;;4.90;;
79533;SDS011;68982;52.160;6.736;2024-01-10T08:56:45;13.52;;;6.07;;
79533;SDS011;68982;52.160;6.736;2024-01-10T08:59:12;14.32;;;6.43;;
79533;SDS011;68982;52.160;6.736;2024-01-10T09:01:38;12.05;;;6.47;;
79533;SDS011;68982;52.160;6.736;2024-01-10T09:04:04;12.60;;;6.00;;
79533;SDS011;68982;52.160;6.736;2024-01-10T09:06:30;11.73;;;6.85;;
79533;SDS011;68982;52.160;6.736;2024-01-10T09:08:56;16.70;;;6.10;;
79533;SDS011;68982;52.160;6.736;2024-01-10T09:11:22;8.23;;;5.60;;
79533;SDS011;68982;52.160;6.736;2024-01-10T09:13:47;11.87;;;5.87;;
79533;SDS011;68982;52.160;6.736;2024-01-10T09:16:12;12.35;;;6.07;;
79533;SDS011;68982;52.160;6.736;2024-01-10T09:18:38;12.50;;;6.28;;
79533;SDS011;68982;52.160;6.736;2024-01-10T09:21:05;14.48;;;6.63;;
79533;SDS011;68982;52.160;6.736;2024-01-10T09:23:30;13.80;;;6.03;;
79533;SDS011;68982;52.160;6.736;2024-01-10T09:25:55;15.60;;;6.37;;
79533;SDS011;68982;52.160;6.736;2024-01-10T09:28:21;15.07;;;6.93;;
79533;SDS011;68982;52.160;6.736;2024-01-10T09:30:46;13.35;;;6.72;;
79533;SDS011;68982;52.160;6.736;2024-01-10T09:33:12;16.27;;;6.75;;
79533;SDS011;68982;52.160;6.736;2024-01-10T09:35:37;16.05;;;6.85;;
79533;SDS011;68982;52.160;6.736;2024-01-10T09:38:03;10.63;;;5.33;;
79533;SDS011;68982;52.160;6.736;2024-01-10T09:40:29;11.90;;;6.57;;
79533;SDS011;68982;52.160;6.736;2024-01-10T09:42:54;15.68;;;6.35;;
79533;SDS011;68982;52.160;6.736;2024-01-10T09:45:20;13.68;;;7.03;;
79533;SDS011;68982;52.160;6.736;2024-01-10T09:47:48;14.27;;;6.88;;
79533;SDS011;68982;52.160;6.736;2024-01-10T09:50:17;14.70;;;7.10;;
79533;SDS011;68982;52.160;6.736;2024-01-10T09:52:46;14.90;;;6.80;;
79533;SDS011;68982;52.160;6.736;2024-01-10T09:55:21;12.10;;;6.65;;
79533;SDS011;68982;52.160;6.736;2024-01-10T09:57:47;13.48;;;5.80;;
79533;SDS011;68982;52.160;6.736;2024-01-10T10:00:12;13.48;;;6.90;;
79533;SDS011;68982;52.160;6.736;2024-01-10T10:02:40;14.45;;;7.18;;
79533;SDS011;68982;52.160;6.736;2024-01-10T10:07:43;13.27;;;6.45;;
79533;SDS011;68982;52.160;6.736;2024-01-10T10:10:09;16.17;;;7.80;;
79533;SDS011;68982;52.160;6.736;2024-01-10T10:12:42;13.77;;;6.35;;
79533;SDS011;68982;52.160;6.736;2024-01-10T10:15:17;12.13;;;6.38;;
79533;SDS011;68982;52.160;6.736;2024-01-10T10:17:44;12.80;;;6.38;;
79533;SDS011;68982;52.160;6.736;2024-01-10T10:20:20;14.43;;;6.03;;
79533;SDS011;68982;52.160;6.736;2024-01-10T10:22:57;13.77;;;6.43;;
79533;SDS011;68982;52.160;6.736;2024-01-10T10:25:26;13.02;;;7.05;;
79533;SDS011;68982;52.160;6.736;2024-01-10T10:28:03;15.32;;;7.53;;
79533;SDS011;68982;52.160;6.736;2024-01-10T10:30:32;16.67;;;6.90;;
79533;SDS011;68982;52.160;6.736;2024-01-10T10:32:58;16.63;;;7.20;;
79533;SDS011;68982;52.160;6.736;2024-01-10T10:35:24;15.80;;;6.85;;
79533;SDS011;68982;52.160;6.736;2024-01-10T10:37:50;13.73;;;7.30;;
79533;SDS011;68982;52.160;6.736;2024-01-10T10:40:17;16.42;;;6.80;;
79533;SDS011;68982;52.160;6.736;2024-01-10T10:42:44;15.57;;;6.93;;
79533;SDS011;68982;52.160;6.736;2024-01-10T10:45:17;13.63;;;6.53;;
79533;SDS011;68982;52.160;6.736;2024-01-10T10:47:44;15.30;;;6.47;;
79533;SDS011;68982;52.160;6.736;2024-01-10T10:50:15;15.15;;;6.82;;
79533;SDS011;68982;52.160;6.736;2024-01-10T10:52:48;14.23;;;7.50;;
79533;SDS011;68982;52.160;6.736;2024-01-10T10:55:17;15.88;;;7.28;;
79533;SDS011;68982;52.160;6.736;2024-01-10T10:57:44;14.32;;;6.60;;
79533;SDS011;68982;52.160;6.736;2024-01-10T11:00:13;14.45;;;7.07;;
79533;SDS011;68982;52.160;6.736;2024-01-10T11:02:40;12.32;;;6.55;;
79533;SDS011;68982;52.160;6.736;2024-01-10T11:05:06;15.30;;;7.50;;
79533;SDS011;68982;52.160;6.736;2024-01-10T11:07:43;14.50;;;7.75;;
79533;SDS011;68982;52.160;6.736;2024-01-10T11:10:17;16.30;;;7.80;;
79533;SDS011;68982;52.160;6.736;2024-01-10T11:15:43;16.83;;;8.48;;
79533;SDS011;68982;52.160;6.736;2024-01-10T11:24:05;15.25;;;8.88;;
79533;SDS011;68982;52.160;6.736;2024-01-10T11:26:32;14.48;;;8.07;;
79533;SDS011;68982;52.160;6.736;2024-01-10T11:28:58;13.85;;;7.43;;
79533;SDS011;68982;52.160;6.736;2024-01-10T11:31:29;18.30;;;8.98;;
79533;SDS011;68982;52.160;6.736;2024-01-10T11:34:02;14.18;;;8.43;;
79533;SDS011;68982;52.160;6.736;2024-01-10T11:36:28;19.80;;;10.40;;
79533;SDS011;68982;52.160;6.736;2024-01-10T11:39:02;13.20;;;6.88;;
79533;SDS011;68982;52.160;6.736;2024-01-10T11:41:34;14.70;;;8.05;;
79533;SDS011;68982;52.160;6.736;2024-01-10T11:46:39;14.95;;;7.70;;
79533;SDS011;68982;52.160;6.736;2024-01-10T11:49:11;13.80;;;7.82;;
79533;SDS011;68982;52.160;6.736;2024-01-10T11:51:38;12.90;;;7.50;;
79533;SDS011;68982;52.160;6.736;2024-01-10T11:54:06;13.60;;;7.97;;
79533;SDS011;68982;52.160;6.736;2024-01-10T11:56:38;15.50;;;8.00;;
79533;SDS011;68982;52.160;6.736;2024-01-10T11:59:09;14.18;;;7.65;;
79533;SDS011;68982;52.160;6.736;2024-01-10T12:01:39;18.15;;;8.43;;
79533;SDS011;68982;52.160;6.736;2024-01-10T12:04:06;14.95;;;8.23;;
79533;SDS011;68982;52.160;6.736;2024-01-10T12:06:33;15.00;;;7.63;;
79533;SDS011;68982;52.160;6.736;2024-01-10T12:09:01;14.65;;;7.85;;
79533;SDS011;68982;52.160;6.736;2024-01-10T12:11:33;14.55;;;7.65;;
79533;SDS011;68982;52.160;6.736;2024-01-10T12:13:59;17.67;;;8.48;;
79533;SDS011;68982;52.160;6.736;2024-01-10T12:16:24;16.05;;;8.07;;
79533;SDS011;68982;52.160;6.736;2024-01-10T12:18:50;16.27;;;8.23;;
79533;SDS011;68982;52.160;6.736;2024-01-10T12:21:16;14.25;;;8.70;;
79533;SDS011;68982;52.160;6.736;2024-01-10T12:23:42;15.98;;;8.05;;
79533;SDS011;68982;52.160;6.736;2024-01-10T12:26:08;18.08;;;8.63;;
79533;SDS011;68982;52.160;6.736;2024-01-10T12:28:38;16.00;;;8.43;;
79533;SDS011;68982;52.160;6.736;2024-01-10T12:31:04;13.18;;;7.25;;
79533;SDS011;68982;52.160;6.736;2024-01-10T12:33:32;15.07;;;7.97;;
79533;SDS011;68982;52.160;6.736;2024-01-10T12:38:34;14.18;;;7.82;;
79533;SDS011;68982;52.160;6.736;2024-01-10T12:41:00;15.45;;;7.75;;
79533;SDS011;68982;52.160;6.736;2024-01-10T12:43:26;14.55;;;7.50;;
79533;SDS011;68982;52.160;6.736;2024-01-10T12:48:30;17.15;;;7.90;;
79533;SDS011;68982;52.160;6.736;2024-01-10T12:50:56;16.00;;;7.97;;
79533;SDS011;68982;52.160;6.736;2024-01-10T12:53:22;16.50;;;7.75;;
79533;SDS011;68982;52.160;6.736;2024-01-10T12:55:47;15.15;;;7.95;;
79533;SDS011;68982;52.160;6.736;2024-01-10T12:58:13;15.07;;;7.85;;
79533;SDS011;68982;52.160;6.736;2024-01-10T13:00:38;14.20;;;7.32;;
79533;SDS011;68982;52.160;6.736;2024-01-10T13:03:05;16.42;;;6.88;;
79533;SDS011;68982;52.160;6.736;2024-01-10T13:05:31;13.32;;;6.75;;
79533;SDS011;68982;52.160;6.736;2024-01-10T13:07:56;11.70;;;7.07;;
79533;SDS011;68982;52.160;6.736;2024-01-10T13:10:22;15.90;;;7.85;;
79533;SDS011;68982;52.160;6.736;2024-01-10T13:12:47;14.70;;;6.07;;
79533;SDS011;68982;52.160;6.736;2024-01-10T13:15:12;13.10;;;7.03;;
79533;SDS011;68982;52.160;6.736;2024-01-10T13:17:38;12.48;;;6.25;;
79533;SDS011;68982;52.160;6.736;2024-01-10T13:20:03;17.63;;;7.07;;
79533;SDS011;68982;52.160;6.736;2024-01-10T13:22:30;16.90;;;7.40;;
79533;SDS011;68982;52.160;6.736;2024-01-10T13:24:55;11.07;;;6.00;;
79533;SDS011;68982;52.160;6.736;2024-01-10T13:27:21;16.90;;;7.93;;
79533;SDS011;68982;52.160;6.736;2024-01-10T13:29:46;17.77;;;8.18;;
79533;SDS011;68982;52.160;6.736;2024-01-10T13:32:11;14.13;;;6.40;;
79533;SDS011;68982;52.160;6.736;2024-01-10T13:34:37;12.38;;;6.50;;
79533;SDS011;68982;52.160;6.736;2024-01-10T13:37:02;17.40;;;7.13;;
79533;SDS011;68982;52.160;6.736;2024-01-10T13:39:27;13.80;;;6.32;;
79533;SDS011;68982;52.160;6.736;2024-01-10T13:41:53;17.67;;;6.67;;
79533;SDS011;68982;52.160;6.736;2024-01-10T13:44:19;13.60;;;6.45;;
79533;SDS011;68982;52.160;6.736;2024-01-10T13:46:45;20.55;;;7.38;;
79533;SDS011;68982;52.160;6.736;2024-01-10T13:49:10;12.73;;;6.32;;
79533;SDS011;68982;52.160;6.736;2024-01-10T13:51:36;14.88;;;6.55;;
79533;SDS011;68982;52.160;6.736;2024-01-10T13:54:01;13.93;;;5.93;;
79533;SDS011;68982;52.160;6.736;2024-01-10T13:56:27;12.68;;;6.38;;
79533;SDS011;68982;52.160;6.736;2024-01-10T13:58:54;12.15;;;6.45;;
79533;SDS011;68982;52.160;6.736;2024-01-10T14:01:19;14.33;;;6.70;;
79533;SDS011;68982;52.160;6.736;2024-01-10T14:03:45;16.30;;;8.07;;
79533;SDS011;68982;52.160;6.736;2024-01-10T14:06:10;13.47;;;6.57;;
79533;SDS011;68982;52.160;6.736;2024-01-10T14:08:35;13.38;;;6.47;;
79533;SDS011;68982;52.160;6.736;2024-01-10T14:11:02;12.35;;;6.32;;
79533;SDS011;68982;52.160;6.736;2024-01-10T14:13:29;13.68;;;7.18;;
79533;SDS011;68982;52.160;6.736;2024-01-10T14:15:54;14.13;;;6.53;;
79533;SDS011;68982;52.160;6.736;2024-01-10T14:18:19;12.57;;;6.37;;
79533;SDS011;68982;52.160;6.736;2024-01-10T14:20:46;15.93;;;7.15;;
79533;SDS011;68982;52.160;6.736;2024-01-10T14:23:11;13.70;;;6.97;;
79533;SDS011;68982;52.160;6.736;2024-01-10T14:25:37;16.73;;;7.17;;
79533;SDS011;68982;52.160;6.736;2024-01-10T14:28:02;17.83;;;7.33;;
79533;SDS011;68982;52.160;6.736;2024-01-10T14:30:28;14.00;;;7.20;;
79533;SDS011;68982;52.160;6.736;2024-01-10T14:32:53;15.45;;;7.47;;
79533;SDS011;68982;52.160;6.736;2024-01-10T14:35:19;14.60;;;7.13;;
79533;SDS011;68982;52.160;6.736;2024-01-10T14:37:44;13.82;;;6.55;;
79533;SDS011;68982;52.160;6.736;2024-01-10T14:40:10;15.23;;;7.10;;
79533;SDS011;68982;52.160;6.736;2024-01-10T14:42:36;12.90;;;6.57;;
79533;SDS011;68982;52.160;6.736;2024-01-10T14:45:02;13.18;;;6.03;;
79533;SDS011;68982;52.160;6.736;2024-01-10T14:47:29;15.65;;;6.90;;
79533;SDS011;68982;52.160;6.736;2024-01-10T14:49:54;17.10;;;7.47;;
79533;SDS011;68982;52.160;6.736;2024-01-10T14:52:22;15.43;;;6.82;;
79533;SDS011;68982;52.160;6.736;2024-01-10T14:54:49;14.48;;;6.78;;